Kihei, Hawaii
Current Conditions -  °F | °C
As of 9:54 PM on Tuesday 25 Nov 2014 (Local Time) from PHOG Reporting Station
Clear Clear  
Wind Chill: 70°   Ceiling: Unl
Heat Index: 70°   Visibility: 10mi
Dew Point: 61°   Wind: 7mph
Humidity: 73%   Direction: 30°NNE
Pressure: 30.08"   Gusts: NA
Location:  20.78°N, 156.46°W
Report Text: PHOG 260754Z 03006KT 10SM CLR 21/16 A3008 RMK AO2 SLP191 T02110161 $
Loading
Personal Weather Stations






























Interactive Weather Map New forecast layout! Learn more

10-Day Weather Forecast

Advertisements
Track Severe Weather on mobile